Terminal Aerodrome Forecast
Issued by NWS Twin Cities, MN

Home | Current Version | Previous Version | Graphics & Text | Print | Product List | Glossary On
Versions: 1 2 3 4 5 6 7 8 9 10 11 12 13 14 15 16 17 18 19
000
FTUS43 KMPX 240520
TAFSTC
TAF
KSTC 240520Z 2406/2506 28006KT P6SM FEW050 SCT150
     FM242000 28005KT P6SM OVC020
     FM242300 04005KT 1 1/2SM -SN OVC012
      TEMPO 2503/2506 3/4SM -SN VV006=

USA.gov is the U.S. government's official web portal to all federal, state and local government web resources and services.